Monroe County (BMG)

 

Airport Diagram
Current Weather/Forecast (IFR Conditions)
METAR KBMG 232326Z 31011G22KT 10SM OVC008 12/09 A3003 RMK AO2 RAE26 CIG 007V012 P0000 T01170089 $
TAF KBMG 231918Z 2319/2418 23013G21KT 6SM SHRA VCTS SCT015 BKN026CB TEMPO 2319/2322 1 1/2SM +TSRA BKN015 OVC026CB FM232200 31011G19KT P6SM VCTS OVC015CB FM240200 33010KT P6SM OVC015 FM241300 02007KT P6SM SCT019

Airport Information

All Charts
General
Chart Name View
AIRPORT DIAGRAM
AIRPORT DIAGRAM
TAKEOFF MINIMUMS
ALTERNATE MINIMUMS
TAKEOFF MINIMUMS
ALTERNATE MINIMUMS
LAHSO
LAHSO

Approaches
Chart Name Download
ILS OR LOC/DME RWY 35
RNAV (GPS) RWY 06
RNAV (GPS) RWY 17
RNAV (GPS) RWY 24
RNAV (GPS) RWY 35
VOR/DME RWY 06
VOR RWY 17
ILS OR LOC/DME RWY 35
RNAV (GPS) RWY 06
RNAV (GPS) RWY 17
RNAV (GPS) RWY 24
RNAV (GPS) RWY 35
VOR/DME RWY 06
VOR RWY 17


Airport Statistics
Departures Arrivals Local
All Collected Stats since June 2016: 64 90 8
2020 Stats: 8 25 1
October Stats: 0 2 0

Inbound Traffic (Arrivals) - 0

No inbound traffic.


Outbound Traffic (Departures) - 0

No outbound traffic.


Local Traffic (Pattern) - 0

No local traffic.